Time,TemperatureF,DewpointF,PressureIn,WindDirection,WindDirectionDegrees,WindSpeedMPH,WindSpeedGustMPH,Humidity,HourlyPrecipIn,Conditions,Clouds,dailyrainin,SoftwareType,DateUTC
2013-02-01 00:00:00,23.7,11.1,29.51,SSW,210,3.0,0.0,58,0.00,RA,RA,0.00,WeatherDisplay:10.37,2013-02-01 05:00:00,
2013-02-01 00:10:00,23.5,10.9,29.51,South,181,9.0,0.0,58,0.00,BKN,BKN,0.00,WeatherDisplay:10.37,2013-02-01 05:10:00,
2013-02-01 00:20:00,23.8,10.8,29.51,SSW,197,9.0,0.0,57,0.00,BKN,BKN,0.00,WeatherDisplay:10.37,2013-02-01 05:20:00,
2013-02-01 00:30:00,23.5,11.3,29.53,SSW,210,1.0,0.0,59,0.00,BKN,BKN,0.00,WeatherDisplay:10.37,2013-02-01 05:30:00,
2013-02-01 00:40:00,23.5,11.7,29.52,SSW,198,5.0,0.0,60,0.00,BKN,BKN,0.00,WeatherDisplay:10.37,2013-02-01 05:40:00,
2013-02-01 00:50:00,23.5,10.9,29.52,SSW,207,5.0,0.0,58,0.00,BKN,BKN,0.00,WeatherDisplay:10.37,2013-02-01 05:50:00,
2013-02-01 00:59:00,23.5,11.7,29.52,SSW,200,7.0,0.0,60,0.00,BKN,BKN,0.00,WeatherDisplay:10.37,2013-02-01 05:59:00,
2013-02-01 01:10:00,23.5,11.7,29.53,SSW,194,3.0,0.0,60,0.00,BKN,BKN,0.00,WeatherDisplay:10.37,2013-02-01 06:10:00,
2013-02-01 01:20:00,23.6,11.4,29.55,SSW,199,2.0,0.0,59,0.00,BKN,BKN,0.00,WeatherDisplay:10.37,2013-02-01 06:20:00,
2013-02-01 01:30:00,23.5,11.3,29.55,SSW,200,8.0,0.0,59,0.00,BKN,BKN,0.00,WeatherDisplay:10.37,2013-02-01 06:30:00,
2013-02-01 01:40:00,23.5,10.9,29.55,SSW,201,6.0,0.0,58,0.00,BKN,BKN,0.00,WeatherDisplay:10.37,2013-02-01 06:40:00,
2013-02-01 01:50:00,23.5,11.3,29.55,SSW,201,5.0,0.0,59,0.00,BKN,BKN,0.00,WeatherDisplay:10.37,2013-02-01 06:50:00,
2013-02-01 01:59:00,23.4,11.1,29.55,SSW,203,7.0,0.0,59,0.00,BKN,BKN,0.00,WeatherDisplay:10.37,2013-02-01 06:59:00,
2013-02-01 02:10:00,23.0,10.4,29.55,SSW,194,5.0,0.0,58,0.00,BKN,BKN,0.00,WeatherDisplay:10.37,2013-02-01 07:10:00,
2013-02-01 02:20:00,22.7,10.5,29.56,SSW,202,1.0,0.0,59,0.00,BKN,BKN,0.00,WeatherDisplay:10.37,2013-02-01 07:20:00,
2013-02-01 02:30:00,22.7,10.5,29.56,SSW,199,9.0,0.0,59,0.00,BKN,BKN,0.00,WeatherDisplay:10.37,2013-02-01 07:30:00,
2013-02-01 02:40:00,22.8,10.6,29.55,South,191,5.0,0.0,59,0.00,BKN,BKN,0.00,WeatherDisplay:10.37,2013-02-01 07:40:00,
2013-02-01 02:50:00,22.5,10.3,29.55,SSW,202,2.0,0.0,59,0.00,BKN,BKN,0.00,WeatherDisplay:10.37,2013-02-01 07:50:00,
2013-02-01 03:00:00,22.5,11.0,29.56,SSW,198,6.0,0.0,61,0.00,BKN,BKN,0.00,WeatherDisplay:10.37,2013-02-01 08:00:00,
2013-02-01 03:10:00,22.5,10.4,29.56,SW,214,8.0,0.0,59,0.00,BKN,BKN,0.00,WeatherDisplay:10.37,2013-02-01 08:10:00,
2013-02-01 03:20:00,22.5,10.3,29.56,SSW,206,3.0,0.0,59,0.00,BKN,BKN,0.00,WeatherDisplay:10.37,2013-02-01 08:20:00,
2013-02-01 03:30:00,22.1,9.6,29.56,SSW,192,3.0,0.0,58,0.00,BKN,BKN,0.00,WeatherDisplay:10.37,2013-02-01 08:30:00,
2013-02-01 03:40:00,22.1,9.9,29.56,SSW,195,3.0,0.0,59,0.00,BKN,BKN,0.00,WeatherDisplay:10.37,2013-02-01 08:40:00,
2013-02-01 03:50:00,21.7,10.3,29.57,SSW,198,3.0,0.0,61,0.00,BKN,BKN,0.00,WeatherDisplay:10.37,2013-02-01 08:50:00,
2013-02-01 03:59:00,21.6,9.4,29.57,SSW,197,5.0,0.0,59,0.00,BKN,BKN,0.00,WeatherDisplay:10.37,2013-02-01 08:59:00,
2013-02-01 04:10:00,21.4,9.6,29.57,South,187,0.0,0.0,60,0.00,BKN,BKN,0.00,WeatherDisplay:10.37,2013-02-01 09:10:00,
2013-02-01 04:20:00,21.6,9.4,29.57,SSW,198,3.0,0.0,59,0.00,BKN,BKN,0.00,WeatherDisplay:10.37,2013-02-01 09:20:00,
2013-02-01 04:30:00,21.4,8.5,29.58,SSW,213,10.0,0.0,57,0.00,BKN,BKN,0.00,WeatherDisplay:10.37,2013-02-01 09:30:00,
2013-02-01 04:40:00,21.2,8.3,29.59,SSW,203,5.0,0.0,57,0.00,BKN,BKN,0.00,WeatherDisplay:10.37,2013-02-01 09:40:00,
2013-02-01 04:50:00,21.2,8.3,29.59,SW,216,9.0,0.0,57,0.00,BKN,BKN,0.00,WeatherDisplay:10.37,2013-02-01 09:50:00,
2013-02-01 05:00:00,21.0,8.5,29.58,SSW,200,5.0,0.0,58,0.00,BKN,BKN,0.00,WeatherDisplay:10.37,2013-02-01 10:00:00,
2013-02-01 05:10:00,20.8,8.4,29.59,SSW,207,3.0,0.0,58,0.00,BKN,BKN,0.00,WeatherDisplay:10.37,2013-02-01 10:10:00,
2013-02-01 05:20:00,20.8,8.4,29.59,SSW,192,3.0,0.0,58,0.00,BKN,BKN,0.00,WeatherDisplay:10.37,2013-02-01 10:20:00,
2013-02-01 05:30:00,20.8,8.4,29.61,SSW,210,1.0,0.0,58,0.00,BKN,BKN,0.00,WeatherDisplay:10.37,2013-02-01 10:30:00,
2013-02-01 05:40:00,20.8,8.4,29.60,SW,219,3.0,0.0,58,0.00,BKN,BKN,0.00,WeatherDisplay:10.37,2013-02-01 10:40:00,
2013-02-01 05:50:00,20.8,8.7,29.60,SSW,203,1.0,0.0,59,0.00,BKN,BKN,0.00,WeatherDisplay:10.37,2013-02-01 10:50:00,
2013-02-01 05:59:00,20.5,8.4,29.62,SSW,207,3.0,0.0,59,0.00,BKN,BKN,0.00,WeatherDisplay:10.37,2013-02-01 10:59:00,
2013-02-01 06:10:00,20.1,8.8,29.62,SSW,205,0.0,0.0,61,0.00,BKN,BKN,0.00,WeatherDisplay:10.37,2013-02-01 11:10:00,
2013-02-01 06:20:00,19.9,8.3,29.63,SSW,213,1.0,0.0,60,0.00,BKN,BKN,0.00,WeatherDisplay:10.37,2013-02-01 11:20:00,
2013-02-01 06:30:00,19.9,8.3,29.64,SSW,199,1.0,0.0,60,0.00,BKN,BKN,0.00,WeatherDisplay:10.37,2013-02-01 11:30:00,
2013-02-01 06:40:00,19.9,8.6,29.64,SSW,195,3.0,0.0,61,0.00,BKN,BKN,0.00,WeatherDisplay:10.37,2013-02-01 11:40:00,
2013-02-01 06:50:00,20.1,9.2,29.64,SSW,197,0.0,0.0,62,0.00,BKN,BKN,0.00,WeatherDisplay:10.37,2013-02-01 11:50:00,
2013-02-01 07:00:00,20.8,9.4,29.64,SW,215,2.0,0.0,61,0.00,BKN,BKN,0.00,WeatherDisplay:10.37,2013-02-01 12:00:00,
2013-02-01 07:10:00,20.5,9.2,29.65,SSW,209,2.0,0.0,61,0.00,BKN,BKN,0.00,WeatherDisplay:10.37,2013-02-01 12:10:00,
2013-02-01 07:20:00,20.7,9.7,29.65,SW,220,6.0,0.0,62,0.00,BKN,BKN,0.00,WeatherDisplay:10.37,2013-02-01 12:20:00,
2013-02-01 07:29:00,21.0,9.7,29.65,SSW,205,5.0,0.0,61,0.00,BKN,BKN,0.00,WeatherDisplay:10.37,2013-02-01 12:29:00,
2013-02-01 07:39:00,21.9,10.1,29.65,SW,229,3.0,0.0,60,0.00,BKN,BKN,0.00,WeatherDisplay:10.37,2013-02-01 12:39:00,
2013-02-01 07:50:00,21.4,10.4,29.67,SSW,207,7.0,0.0,62,0.00,BKN,BKN,0.00,WeatherDisplay:10.37,2013-02-01 12:50:00,
2013-02-01 07:59:00,20.8,9.9,29.68,SSW,205,1.0,0.0,62,0.00,BKN,BKN,0.00,WeatherDisplay:10.37,2013-02-01 12:59:00,
2013-02-01 08:09:00,21.7,10.0,29.68,SSW,202,3.0,0.0,60,0.00,BKN,BKN,0.00,WeatherDisplay:10.37,2013-02-01 13:09:00,
2013-02-01 08:20:00,21.7,10.3,29.68,SSW,210,5.0,0.0,61,0.00,BKN,BKN,0.00,WeatherDisplay:10.37,2013-02-01 13:20:00,
2013-02-01 08:30:00,21.6,9.0,29.68,SW,221,7.0,0.0,58,0.00,BKN,BKN,0.00,WeatherDisplay:10.37,2013-02-01 13:30:00,
2013-02-01 08:40:00,21.9,9.0,29.68,SSW,203,2.0,0.0,57,0.00,BKN,BKN,0.00,WeatherDisplay:10.37,2013-02-01 13:40:00,
2013-02-01 08:49:00,22.1,8.8,29.69,SSW,209,6.0,0.0,56,0.00,BKN,BKN,0.00,WeatherDisplay:10.37,2013-02-01 13:49:00,
2013-02-01 08:59:00,22.6,8.9,29.69,SSW,210,8.0,0.0,55,0.00,BKN,BKN,0.00,WeatherDisplay:10.37,2013-02-01 13:59:00,
2013-02-01 09:10:00,23.5,10.5,29.69,SSW,200,5.0,0.0,57,0.00,BKN,BKN,0.00,WeatherDisplay:10.37,2013-02-01 14:10:00,
2013-02-01 09:20:00,23.5,9.7,29.70,SSW,208,8.0,0.0,55,0.00,BKN,BKN,0.00,WeatherDisplay:10.37,2013-02-01 14:20:00,
2013-02-01 09:29:00,23.3,9.1,29.71,SSW,211,12.0,0.0,54,0.00,BKN,BKN,0.00,WeatherDisplay:10.37,2013-02-01 14:29:00,
2013-02-01 09:40:00,23.1,8.5,29.71,SSW,200,10.0,0.0,53,0.00,BKN,BKN,0.00,WeatherDisplay:10.37,2013-02-01 14:40:00,
2013-02-01 09:50:00,23.6,9.4,29.73,SSW,207,6.0,0.0,54,0.00,BKN,BKN,0.00,WeatherDisplay:10.37,2013-02-01 14:50:00,
2013-02-01 09:59:00,24.8,10.1,29.73,SW,214,3.0,0.0,53,0.00,BKN,BKN,0.00,WeatherDisplay:10.37,2013-02-01 14:59:00,
2013-02-01 10:10:00,25.2,9.5,29.75,WSW,242,6.0,0.0,51,0.00,BKN,BKN,0.00,WeatherDisplay:10.37,2013-02-01 15:10:00,
2013-02-01 10:20:00,25.0,10.7,29.74,SW,221,3.0,0.0,54,0.00,BKN,BKN,0.00,WeatherDisplay:10.37,2013-02-01 15:20:00,
2013-02-01 10:30:00,25.1,9.9,29.74,SW,236,5.0,0.0,52,0.00,BKN,BKN,0.00,WeatherDisplay:10.37,2013-02-01 15:30:00,
2013-02-01 10:40:00,26.2,9.2,29.73,SW,220,7.0,0.0,48,0.00,BKN,BKN,0.00,WeatherDisplay:10.37,2013-02-01 15:40:00,
2013-02-01 10:50:00,27.1,10.0,29.74,SW,214,3.0,0.0,48,0.00,BKN,BKN,0.00,WeatherDisplay:10.37,2013-02-01 15:50:00,
2013-02-01 10:59:00,27.9,10.2,29.74,SW,214,5.0,0.0,47,0.00,BKN,BKN,0.00,WeatherDisplay:10.37,2013-02-01 15:59:00,
2013-02-01 11:09:00,26.2,8.2,29.74,SW,225,6.0,0.0,46,0.00,BKN,BKN,0.00,WeatherDisplay:10.37,2013-02-01 16:09:00,
2013-02-01 11:20:00,25.3,8.4,29.74,WSW,239,3.0,0.0,48,0.00,BKN,BKN,0.00,WeatherDisplay:10.37,2013-02-01 16:20:00,
2013-02-01 11:30:00,25.2,7.7,29.74,SW,235,3.0,0.0,47,0.00,BKN,BKN,0.00,WeatherDisplay:10.37,2013-02-01 16:30:00,
2013-02-01 11:40:00,24.8,7.4,29.74,WSW,247,3.0,0.0,47,0.00,BKN,BKN,0.00,WeatherDisplay:10.37,2013-02-01 16:40:00,
2013-02-01 11:50:00,24.8,6.4,29.74,SW,228,9.0,0.0,45,0.00,BKN,BKN,0.00,WeatherDisplay:10.37,2013-02-01 16:50:00,
2013-02-01 11:59:00,25.7,7.7,29.73,SW,217,6.0,0.0,46,0.00,BKN,BKN,0.00,WeatherDisplay:10.37,2013-02-01 16:59:00,
2013-02-01 12:10:00,26.6,8.1,29.74,WSW,241,8.0,0.0,45,0.00,BKN,BKN,0.00,WeatherDisplay:10.37,2013-02-01 17:10:00,
2013-02-01 12:19:00,26.6,8.6,29.73,SW,234,5.0,0.0,46,0.00,BKN,BKN,0.00,WeatherDisplay:10.37,2013-02-01 17:19:00,
2013-02-01 12:29:00,25.2,9.5,29.73,West,264,2.0,0.0,51,0.00,BKN,BKN,0.00,WeatherDisplay:10.37,2013-02-01 17:29:00,
2013-02-01 12:40:00,25.5,9.0,29.73,West,263,5.0,0.0,49,0.00,BKN,BKN,0.00,WeatherDisplay:10.37,2013-02-01 17:40:00,
2013-02-01 12:50:00,25.2,9.1,29.73,SW,222,3.0,0.0,50,0.00,BKN,BKN,0.00,WeatherDisplay:10.37,2013-02-01 17:50:00,
2013-02-01 12:59:00,24.3,7.4,29.73,West,262,6.0,0.0,48,0.00,BKN,BKN,0.00,WeatherDisplay:10.37,2013-02-01 17:59:00,
2013-02-01 13:10:00,25.4,8.4,29.73,SSW,202,6.0,0.0,48,0.00,BKN,BKN,0.00,WeatherDisplay:10.37,2013-02-01 18:10:00,
2013-02-01 13:20:00,26.1,8.6,29.73,SSW,194,6.0,0.0,47,0.00,BKN,BKN,0.00,WeatherDisplay:10.37,2013-02-01 18:20:00,
2013-02-01 13:30:00,26.2,8.7,29.73,SSW,204,2.0,0.0,47,0.00,BKN,BKN,0.00,WeatherDisplay:10.37,2013-02-01 18:30:00,
2013-02-01 13:39:00,25.0,8.0,29.73,SW,227,1.0,0.0,48,0.00,BKN,BKN,0.00,WeatherDisplay:10.37,2013-02-01 18:39:00,
2013-02-01 13:49:00,24.3,7.4,29.73,South,169,2.0,0.0,48,0.00,BKN,BKN,0.00,WeatherDisplay:10.37,2013-02-01 18:49:00,
2013-02-01 13:59:00,23.5,6.2,29.73,SSE,152,5.0,0.0,47,0.00,BKN,BKN,0.00,WeatherDisplay:10.37,2013-02-01 18:59:00,
2013-02-01 14:10:00,23.7,6.9,29.73,SE,145,5.0,0.0,48,0.00,BKN,BKN,0.00,WeatherDisplay:10.37,2013-02-01 19:10:00,
2013-02-01 14:19:00,24.0,6.7,29.73,SE,128,7.0,0.0,47,0.00,BKN,BKN,0.00,WeatherDisplay:10.37,2013-02-01 19:19:00,
2013-02-01 14:29:00,24.3,7.8,29.73,SE,128,2.0,0.0,49,0.00,BKN,BKN,0.00,WeatherDisplay:10.37,2013-02-01 19:29:00,
2013-02-01 14:40:00,24.1,7.2,29.73,SSE,155,3.0,0.0,48,0.00,BKN,BKN,0.00,WeatherDisplay:10.37,2013-02-01 19:40:00,
2013-02-01 14:50:00,23.5,7.6,29.74,SSW,202,2.0,0.0,50,0.00,BKN,BKN,0.00,WeatherDisplay:10.37,2013-02-01 19:50:00,
2013-02-01 14:59:00,23.0,6.7,29.74,SSW,196,6.0,0.0,49,0.00,BKN,BKN,0.00,WeatherDisplay:10.37,2013-02-01 19:59:00,
2013-02-01 15:10:00,23.4,7.9,29.74,SE,146,5.0,0.0,51,0.00,BKN,BKN,0.00,WeatherDisplay:10.37,2013-02-01 20:10:00,
2013-02-01 15:20:00,23.1,6.3,29.76,SW,214,14.0,0.0,48,0.00,BKN,BKN,0.00,WeatherDisplay:10.37,2013-02-01 20:20:00,
2013-02-01 15:30:00,22.5,6.6,29.77,South,185,2.0,0.0,50,0.00,BKN,BKN,0.00,WeatherDisplay:10.37,2013-02-01 20:30:00,
2013-02-01 15:39:00,22.6,6.7,29.77,SE,133,0.0,0.0,50,0.00,BKN,BKN,0.00,WeatherDisplay:10.37,2013-02-01 20:39:00,
2013-02-01 15:50:00,22.8,6.0,29.77,South,188,9.0,0.0,48,0.00,BKN,BKN,0.00,WeatherDisplay:10.37,2013-02-01 20:50:00,
2013-02-01 15:59:00,22.6,6.8,29.79,SSE,160,5.0,0.0,50,0.00,BKN,BKN,0.00,WeatherDisplay:10.37,2013-02-01 20:59:00,
2013-02-01 16:10:00,22.5,7.0,29.79,South,172,7.0,0.0,51,0.00,BKN,BKN,0.00,WeatherDisplay:10.37,2013-02-01 21:10:00,
2013-02-01 16:19:00,22.1,6.7,29.81,South,172,6.0,0.0,51,0.00,BKN,BKN,0.00,WeatherDisplay:10.37,2013-02-01 21:19:00,
2013-02-01 16:30:00,21.9,5.6,29.79,SSW,213,6.0,0.0,49,0.00,BKN,BKN,0.00,WeatherDisplay:10.37,2013-02-01 21:30:00,
2013-02-01 16:40:00,21.2,5.0,29.81,WSW,238,5.0,0.0,49,0.00,BKN,BKN,0.00,WeatherDisplay:10.37,2013-02-01 21:40:00,
2013-02-01 16:50:00,20.7,4.1,29.82,SW,234,3.0,0.0,48,0.00,BKN,BKN,0.00,WeatherDisplay:10.37,2013-02-01 21:50:00,
2013-02-01 16:59:00,20.1,3.5,29.82,SW,218,1.0,0.0,48,0.00,BKN,BKN,0.00,WeatherDisplay:10.37,2013-02-01 21:59:00,
2013-02-01 17:10:00,19.9,4.2,29.82,SW,215,5.0,0.0,50,0.00,BKN,BKN,0.00,WeatherDisplay:10.37,2013-02-01 22:10:00,
2013-02-01 17:20:00,19.6,4.8,29.83,SSW,213,0.0,0.0,52,0.00,BKN,BKN,0.00,WeatherDisplay:10.37,2013-02-01 22:20:00,
2013-02-01 17:30:00,19.4,5.0,29.84,SW,224,2.0,0.0,53,0.00,BKN,BKN,0.00,WeatherDisplay:10.37,2013-02-01 22:30:00,
2013-02-01 17:40:00,19.0,4.7,29.87,SW,223,1.0,0.0,53,0.00,BKN,BKN,0.00,WeatherDisplay:10.37,2013-02-01 22:40:00,
2013-02-01 17:50:00,18.7,5.2,29.87,SSW,199,1.0,0.0,55,0.00,BKN,BKN,0.00,WeatherDisplay:10.37,2013-02-01 22:50:00,
2013-02-01 17:59:00,18.3,4.4,29.87,SW,222,0.0,0.0,54,0.00,BKN,BKN,0.00,WeatherDisplay:10.37,2013-02-01 22:59:00,
2013-02-01 18:09:00,18.0,4.1,29.87,SW,224,1.0,0.0,54,0.00,BKN,BKN,0.00,WeatherDisplay:10.37,2013-02-01 23:09:00,
2013-02-01 18:20:00,17.8,4.3,29.88,SSW,204,1.0,0.0,55,0.00,BKN,BKN,0.00,WeatherDisplay:10.37,2013-02-01 23:20:00,
2013-02-01 18:30:00,17.6,4.5,29.90,SW,226,0.0,0.0,56,0.00,BKN,BKN,0.00,WeatherDisplay:10.37,2013-02-01 23:30:00,
2013-02-01 18:40:00,17.2,4.2,29.90,SSW,205,0.0,0.0,56,0.00,BKN,BKN,0.00,WeatherDisplay:10.37,2013-02-01 23:40:00,
2013-02-01 18:50:00,17.2,4.5,29.90,SW,217,0.0,0.0,57,0.00,BKN,BKN,0.00,WeatherDisplay:10.37,2013-02-01 23:50:00,
2013-02-01 19:00:00,16.9,4.6,29.90,WSW,237,0.0,0.0,58,0.00,BKN,BKN,0.00,WeatherDisplay:10.37,2013-02-02 00:00:00,
2013-02-01 19:10:00,16.7,5.2,29.90,WSW,258,0.0,0.0,60,0.00,BKN,BKN,0.00,WeatherDisplay:10.37,2013-02-02 00:10:00,
2013-02-01 19:20:00,16.5,5.0,29.91,SSE,168,0.0,0.0,60,0.00,BKN,BKN,0.00,WeatherDisplay:10.37,2013-02-02 00:20:00,
2013-02-01 19:30:00,16.3,4.5,29.93,South,190,0.0,0.0,59,0.00,BKN,BKN,0.00,WeatherDisplay:10.37,2013-02-02 00:30:00,
2013-02-01 19:40:00,16.2,5.1,29.92,SSW,195,0.0,0.0,61,0.00,BKN,BKN,0.00,WeatherDisplay:10.37,2013-02-02 00:40:00,
2013-02-01 19:50:00,16.2,5.4,29.92,SSW,195,0.0,0.0,62,0.00,BKN,BKN,0.00,WeatherDisplay:10.37,2013-02-02 00:50:00,
2013-02-01 19:59:00,16.3,6.3,29.93,SSW,199,0.0,0.0,64,0.00,BKN,BKN,0.00,WeatherDisplay:10.37,2013-02-02 00:59:00,
2013-02-01 20:10:00,16.5,6.1,29.94,SW,218,0.0,0.0,63,0.00,BKN,BKN,0.00,WeatherDisplay:10.37,2013-02-02 01:10:00,
2013-02-01 20:20:00,16.7,4.1,29.93,SSW,210,3.0,0.0,57,0.00,BKN,BKN,0.00,WeatherDisplay:10.37,2013-02-02 01:20:00,
2013-02-01 20:30:00,16.9,5.0,29.94,South,182,1.0,0.0,59,0.00,BKN,BKN,0.00,WeatherDisplay:10.37,2013-02-02 01:30:00,
2013-02-01 20:40:00,16.9,4.3,29.94,South,172,1.0,0.0,57,0.00,BKN,BKN,0.00,WeatherDisplay:10.37,2013-02-02 01:40:00,
2013-02-01 20:49:00,17.2,4.6,29.94,South,187,0.0,0.0,57,0.00,BKN,BKN,0.00,WeatherDisplay:10.37,2013-02-02 01:49:00,
2013-02-01 20:59:00,17.2,4.2,29.94,South,172,0.0,0.0,56,0.00,BKN,BKN,0.00,WeatherDisplay:10.37,2013-02-02 01:59:00,
2013-02-01 21:10:00,17.2,3.8,29.95,SW,217,0.0,0.0,55,0.00,BKN,BKN,0.00,WeatherDisplay:10.37,2013-02-02 02:10:00,
2013-02-01 21:20:00,17.2,3.8,29.95,South,186,2.0,0.0,55,0.00,BKN,BKN,0.00,WeatherDisplay:10.37,2013-02-02 02:20:00,
2013-02-01 21:30:00,17.5,4.0,29.95,South,171,2.0,0.0,55,0.00,BKN,BKN,0.00,WeatherDisplay:10.37,2013-02-02 02:30:00,
2013-02-01 21:39:00,17.4,4.0,29.95,SSW,208,5.0,0.0,55,0.00,BKN,BKN,0.00,WeatherDisplay:10.37,2013-02-02 02:39:00,
2013-02-01 21:50:00,17.2,4.2,29.95,South,190,1.0,0.0,56,0.00,BKN,BKN,0.00,WeatherDisplay:10.37,2013-02-02 02:50:00,
2013-02-01 21:59:00,16.9,4.6,29.95,SSW,205,0.0,0.0,58,0.00,BKN,BKN,0.00,WeatherDisplay:10.37,2013-02-02 02:59:00,
2013-02-01 22:09:00,16.3,4.5,29.96,SE,138,1.0,0.0,59,0.00,BKN,BKN,0.00,WeatherDisplay:10.37,2013-02-02 03:09:00,
2013-02-01 22:19:00,16.2,4.0,29.97,SSW,203,0.0,0.0,58,0.00,BKN,BKN,0.00,WeatherDisplay:10.37,2013-02-02 03:19:00,
2013-02-01 22:30:00,16.2,4.7,29.97,South,188,3.0,0.0,60,0.00,BKN,BKN,0.00,WeatherDisplay:10.37,2013-02-02 03:30:00,
2013-02-01 22:39:00,16.3,4.5,29.96,SSW,210,0.0,0.0,59,0.00,BKN,BKN,0.00,WeatherDisplay:10.37,2013-02-02 03:39:00,
2013-02-01 22:49:00,15.8,3.6,29.97,SW,217,0.0,0.0,58,0.00,BKN,BKN,0.00,WeatherDisplay:10.37,2013-02-02 03:49:00,
2013-02-01 22:59:00,15.4,3.6,29.99,SW,221,2.0,0.0,59,0.00,BKN,BKN,0.00,WeatherDisplay:10.37,2013-02-02 03:59:00,
2013-02-01 23:10:00,15.3,2.3,29.99,SSW,211,2.0,0.0,56,0.00,BKN,BKN,0.00,WeatherDisplay:10.37,2013-02-02 04:10:00,
2013-02-01 23:19:00,15.8,2.9,29.99,WSW,240,0.0,0.0,56,0.00,BKN,BKN,0.00,WeatherDisplay:10.37,2013-02-02 04:19:00,
2013-02-01 23:30:00,15.7,3.5,29.99,SW,216,0.0,0.0,58,0.00,BKN,BKN,0.00,WeatherDisplay:10.37,2013-02-02 04:30:00,
2013-02-01 23:39:00,15.3,2.7,29.99,SSE,167,0.0,0.0,57,0.00,BKN,BKN,0.00,WeatherDisplay:10.37,2013-02-02 04:39:00,
2013-02-01 23:49:00,14.7,3.0,30.01,SSE,161,0.0,0.0,59,0.00,BKN,BKN,0.00,WeatherDisplay:10.37,2013-02-02 04:49:00,